Time;durP1;ratioP1;P1;durP2;ratioP2;P2;SDS_P1;SDS_P2;PMS_P1;PMS_P2;Temp;Humidity;BMP_temperature;BMP_pressure;BME280_temperature;BME280_humidity;BME280_pressure;Samples;Min_cycle;Max_cycle;Signal;HPM_P1;HPM_P2
2023/07/31 00:01:43;;;;;;;24.90;6.32;;;;;;;;;;5024718;28;20784;-71
2023/07/31 00:04:09;;;;;;;31.45;6.68;;;;;;;;;;5020078;28;20064;-72
2023/07/31 00:06:34;;;;;;;28.75;6.40;;;;;;;;;;5012861;28;20025;-73
2023/07/31 00:08:59;;;;;;;27.52;6.18;;;;;;;;;;5006061;28;20124;-72
2023/07/31 00:11:25;;;;;;;25.83;6.35;;;;;;;;;;5011200;28;20036;-73
2023/07/31 00:13:50;;;;;;;31.52;6.75;;;;;;;;;;5020926;28;20041;-72
2023/07/31 00:16:15;;;;;;;27.83;6.65;;;;;;;;;;5015891;28;20120;-73
2023/07/31 00:18:41;;;;;;;32.83;7.10;;;;;;;;;;5019332;28;20060;-73
2023/07/31 00:21:06;;;;;;;36.20;7.18;;;;;;;;;;5011098;28;20072;-72
2023/07/31 00:23:32;;;;;;;28.25;6.70;;;;;;;;;;5022998;28;20041;-74
2023/07/31 00:26:02;;;;;;;25.00;6.60;;;;;;;;;;5021571;28;20039;-75
2023/07/31 00:28:28;;;;;;;32.92;7.05;;;;;;;;;;5002858;28;20056;-73
2023/07/31 00:30:54;;;;;;;39.25;7.97;;;;;;;;;;5043326;28;20029;-74
2023/07/31 00:33:19;;;;;;;26.67;6.18;;;;;;;;;;5023968;28;20083;-74
2023/07/31 00:35:44;;;;;;;27.20;6.70;;;;;;;;;;5052207;28;20094;-75
2023/07/31 00:38:09;;;;;;;29.75;7.60;;;;;;;;;;5002963;28;20097;-73
2023/07/31 00:40:36;;;;;;;30.85;7.60;;;;;;;;;;5016460;28;20030;-72
2023/07/31 00:43:03;;;;;;;34.65;8.63;;;;;;;;;;5001277;28;20037;-73
2023/07/31 00:45:28;;;;;;;30.27;9.02;;;;;;;;;;5018750;28;20962;-70
2023/07/31 00:47:54;;;;;;;38.55;9.30;;;;;;;;;;5018758;28;20123;-71
2023/07/31 00:50:19;;;;;;;38.75;8.57;;;;;;;;;;5036100;28;20095;-69
2023/07/31 00:52:44;;;;;;;35.30;8.55;;;;;;;;;;5024865;28;20044;-73
2023/07/31 00:55:09;;;;;;;36.80;9.05;;;;;;;;;;5018121;28;20031;-72
2023/07/31 00:57:36;;;;;;;36.80;8.90;;;;;;;;;;5022728;28;20037;-71
2023/07/31 01:00:03;;;;;;;36.90;9.77;;;;;;;;;;5017680;28;20053;-73
2023/07/31 01:02:28;;;;;;;41.17;8.90;;;;;;;;;;5028430;28;20037;-72
2023/07/31 01:04:56;;;;;;;38.63;9.32;;;;;;;;;;5035585;28;20082;-73
2023/07/31 01:07:49;;;;;;;35.63;8.50;;;;;;;;;;5024190;28;20167;-72
2023/07/31 01:10:15;;;;;;;42.35;9.55;;;;;;;;;;5048800;28;20119;-72
2023/07/31 01:12:46;;;;;;;48.70;10.52;;;;;;;;;;5018106;28;20035;-73
2023/07/31 01:15:11;;;;;;;44.45;10.20;;;;;;;;;;5051578;28;20044;-72
2023/07/31 01:17:37;;;;;;;53.55;11.07;;;;;;;;;;5037256;28;20037;-72
2023/07/31 01:20:04;;;;;;;41.05;9.77;;;;;;;;;;5018026;28;20029;-76
2023/07/31 01:22:29;;;;;;;39.03;11.20;;;;;;;;;;5016199;28;20032;-72
2023/07/31 01:24:55;;;;;;;40.25;10.02;;;;;;;;;;5017792;28;20517;-75
2023/07/31 01:27:29;;;;;;;44.85;10.65;;;;;;;;;;5019190;28;20161;-76
2023/07/31 01:30:20;;;;;;;45.60;10.75;;;;;;;;;;5017145;28;20024;-74
2023/07/31 01:32:47;;;;;;;40.75;10.55;;;;;;;;;;5016208;28;20053;-74
2023/07/31 01:35:13;;;;;;;52.10;11.60;;;;;;;;;;5015295;28;20041;-73
2023/07/31 01:37:38;;;;;;;68.28;11.15;;;;;;;;;;5049439;28;22364;-70
2023/07/31 01:40:04;;;;;;;79.43;11.15;;;;;;;;;;5016728;28;20024;-71
2023/07/31 01:42:29;;;;;;;46.60;10.27;;;;;;;;;;5013812;28;20022;-70
2023/07/31 01:44:54;;;;;;;46.78;11.05;;;;;;;;;;5007400;28;20041;-73
2023/07/31 01:47:23;;;;;;;38.88;10.90;;;;;;;;;;5005077;28;20100;-74
2023/07/31 01:49:48;;;;;;;40.25;10.65;;;;;;;;;;5015597;28;20075;-75
2023/07/31 01:52:13;;;;;;;48.30;11.68;;;;;;;;;;4997567;28;20033;-75
2023/07/31 01:54:39;;;;;;;43.85;10.40;;;;;;;;;;4997033;28;20909;-77
2023/07/31 01:57:04;;;;;;;40.60;10.70;;;;;;;;;;4998479;28;20084;-76
2023/07/31 01:59:29;;;;;;;40.88;10.70;;;;;;;;;;5014680;28;20060;-75
2023/07/31 02:01:55;;;;;;;44.35;10.63;;;;;;;;;;5015233;28;20045;-72
2023/07/31 02:04:20;;;;;;;33.20;10.30;;;;;;;;;;5017294;28;20103;-74
2023/07/31 02:06:45;;;;;;;40.55;10.23;;;;;;;;;;5033660;28;24592;-76
2023/07/31 02:09:11;;;;;;;38.05;10.18;;;;;;;;;;5016151;28;20037;-77
2023/07/31 02:11:36;;;;;;;35.83;9.98;;;;;;;;;;5015334;28;20037;-76
2023/07/31 02:14:01;;;;;;;45.20;10.98;;;;;;;;;;5017498;28;22288;-78
2023/07/31 02:16:27;;;;;;;40.33;10.75;;;;;;;;;;5016031;28;20029;-75
2023/07/31 02:18:52;;;;;;;48.72;10.23;;;;;;;;;;5015369;28;20053;-72
2023/07/31 02:21:17;;;;;;;39.95;9.38;;;;;;;;;;5006624;28;20046;-74
2023/07/31 02:23:45;;;;;;;46.63;11.15;;;;;;;;;;5012701;28;20032;-74
2023/07/31 02:26:10;;;;;;;38.42;10.13;;;;;;;;;;5019679;28;20099;-72
2023/07/31 02:28:35;;;;;;;42.05;10.52;;;;;;;;;;5018305;28;22753;-72
2023/07/31 02:31:01;;;;;;;39.28;9.50;;;;;;;;;;5017524;28;20040;-75
2023/07/31 02:33:26;;;;;;;38.22;9.98;;;;;;;;;;5018784;28;20025;-73
2023/07/31 02:35:53;;;;;;;44.40;10.27;;;;;;;;;;5016155;28;20739;-73
2023/07/31 02:38:19;;;;;;;42.35;10.13;;;;;;;;;;5016137;28;20049;-72
2023/07/31 02:40:44;;;;;;;43.05;10.20;;;;;;;;;;5014691;28;20524;-72
2023/07/31 02:43:09;;;;;;;35.60;10.00;;;;;;;;;;5019150;28;20052;-72
2023/07/31 02:45:37;;;;;;;40.63;9.95;;;;;;;;;;4977324;28;20037;-71
2023/07/31 02:48:02;;;;;;;47.00;10.50;;;;;;;;;;4997326;28;20110;-72
2023/07/31 02:50:28;;;;;;;38.28;9.75;;;;;;;;;;5008925;28;20160;-70
2023/07/31 02:52:56;;;;;;;40.40;9.45;;;;;;;;;;5015850;28;20041;-70
2023/07/31 02:55:21;;;;;;;43.75;10.40;;;;;;;;;;5007208;28;20041;-73
2023/07/31 02:57:47;;;;;;;43.22;9.68;;;;;;;;;;5048593;28;20047;-71
2023/07/31 03:00:13;;;;;;;36.70;9.07;;;;;;;;;;5015081;28;20136;-71
2023/07/31 03:02:38;;;;;;;29.15;8.55;;;;;;;;;;5017941;28;20177;-73
2023/07/31 03:05:03;;;;;;;33.67;9.13;;;;;;;;;;5016984;28;20041;-71
2023/07/31 03:07:30;;;;;;;27.35;8.90;;;;;;;;;;5016935;28;20132;-72
2023/07/31 03:09:55;;;;;;;35.38;8.63;;;;;;;;;;5015274;28;20041;-70
2023/07/31 03:12:23;;;;;;;32.65;8.80;;;;;;;;;;5029830;28;20736;-70
2023/07/31 03:14:50;;;;;;;34.08;9.55;;;;;;;;;;4998202;28;20034;-71
2023/07/31 03:17:16;;;;;;;36.80;9.68;;;;;;;;;;4999405;28;20038;-72
2023/07/31 03:19:41;;;;;;;31.65;9.23;;;;;;;;;;5022728;28;20041;-71
2023/07/31 03:22:07;;;;;;;40.22;10.23;;;;;;;;;;5019629;28;20112;-71
2023/07/31 03:24:32;;;;;;;41.45;9.88;;;;;;;;;;5000951;28;20039;-71
2023/07/31 03:26:57;;;;;;;38.03;9.90;;;;;;;;;;5034713;28;20185;-71
2023/07/31 03:29:22;;;;;;;41.45;10.20;;;;;;;;;;5020435;28;20086;-71
2023/07/31 03:31:48;;;;;;;39.92;9.70;;;;;;;;;;5017602;28;20032;-72
2023/07/31 03:34:16;;;;;;;38.60;10.30;;;;;;;;;;5020429;28;20687;-70
2023/07/31 03:36:41;;;;;;;37.15;9.57;;;;;;;;;;5019202;28;20066;-73
2023/07/31 03:39:06;;;;;;;39.20;10.73;;;;;;;;;;5046068;28;20154;-71
2023/07/31 03:41:35;;;;;;;49.03;11.15;;;;;;;;;;5029204;28;22524;-73
2023/07/31 03:44:00;;;;;;;42.97;9.88;;;;;;;;;;4999385;28;20033;-75
2023/07/31 03:46:25;;;;;;;44.33;10.50;;;;;;;;;;5001000;28;20037;-72
2023/07/31 03:48:53;;;;;;;39.63;10.13;;;;;;;;;;4998563;28;20038;-73
2023/07/31 03:51:18;;;;;;;32.55;9.32;;;;;;;;;;4995772;28;20081;-72
2023/07/31 03:53:44;;;;;;;39.80;10.30;;;;;;;;;;5041776;28;20063;-70
2023/07/31 03:56:09;;;;;;;39.50;9.45;;;;;;;;;;5018982;28;20067;-72
2023/07/31 03:58:36;;;;;;;37.67;10.32;;;;;;;;;;5019793;28;20061;-71
2023/07/31 04:01:01;;;;;;;37.08;8.77;;;;;;;;;;5016017;28;20048;-72
2023/07/31 04:03:27;;;;;;;39.03;9.80;;;;;;;;;;5015467;28;20033;-74
2023/07/31 04:05:53;;;;;;;43.70;10.20;;;;;;;;;;5017209;28;20033;-71
2023/07/31 04:08:19;;;;;;;36.08;9.20;;;;;;;;;;5032172;28;20859;-74
2023/07/31 04:10:44;;;;;;;34.80;9.95;;;;;;;;;;5018890;28;20037;-73
2023/07/31 04:13:12;;;;;;;49.55;10.70;;;;;;;;;;5010756;28;20154;-74
2023/07/31 04:15:37;;;;;;;36.08;9.88;;;;;;;;;;5003153;28;20048;-73
2023/07/31 04:18:02;;;;;;;34.03;10.05;;;;;;;;;;4999278;28;20069;-73
2023/07/31 04:20:28;;;;;;;35.20;9.38;;;;;;;;;;5017216;28;20108;-69
2023/07/31 04:22:53;;;;;;;34.35;9.07;;;;;;;;;;5018975;28;20636;-70
2023/07/31 04:25:18;;;;;;;33.65;7.75;;;;;;;;;;5044992;28;20034;-74
2023/07/31 04:27:43;;;;;;;24.45;6.85;;;;;;;;;;5017227;28;20082;-73
2023/07/31 04:30:09;;;;;;;29.05;7.50;;;;;;;;;;5015466;28;20048;-75
2023/07/31 04:32:35;;;;;;;28.63;7.13;;;;;;;;;;5011970;28;20037;-73
2023/07/31 04:35:01;;;;;;;27.63;6.03;;;;;;;;;;5027837;28;22229;-73
2023/07/31 04:37:26;;;;;;;20.55;5.80;;;;;;;;;;5000324;28;20033;-72
2023/07/31 04:39:53;;;;;;;21.42;5.97;;;;;;;;;;5014366;28;20053;-73
2023/07/31 04:42:21;;;;;;;27.60;5.90;;;;;;;;;;5011840;28;20037;-72
2023/07/31 04:44:47;;;;;;;17.23;5.63;;;;;;;;;;5049997;28;20500;-73
2023/07/31 04:47:12;;;;;;;20.63;5.78;;;;;;;;;;5019064;28;20041;-72
2023/07/31 04:49:39;;;;;;;23.15;5.25;;;;;;;;;;5038842;28;20041;-72
2023/07/31 04:52:05;;;;;;;16.23;3.90;;;;;;;;;;5018188;28;20065;-71
2023/07/31 04:54:30;;;;;;;13.57;3.30;;;;;;;;;;5018423;28;20033;-73
2023/07/31 04:56:55;;;;;;;14.05;2.78;;;;;;;;;;5016919;28;20076;-70
2023/07/31 04:59:21;;;;;;;28.80;4.30;;;;;;;;;;5018678;28;20041;-72
2023/07/31 05:01:46;;;;;;;19.67;3.60;;;;;;;;;;5009590;28;20057;-75
2023/07/31 05:04:14;;;;;;;27.55;4.43;;;;;;;;;;5018596;28;21192;-72
2023/07/31 05:06:40;;;;;;;22.35;3.63;;;;;;;;;;5016942;28;20099;-73
2023/07/31 05:09:05;;;;;;;20.42;3.35;;;;;;;;;;5025329;28;22760;-73
2023/07/31 05:11:30;;;;;;;28.35;3.70;;;;;;;;;;5026587;28;20025;-72
2023/07/31 05:13:56;;;;;;;18.75;3.15;;;;;;;;;;5055160;28;20038;-73
2023/07/31 05:16:21;;;;;;;24.55;3.03;;;;;;;;;;5023483;28;20856;-73
2023/07/31 05:18:47;;;;;;;28.63;4.28;;;;;;;;;;5029229;28;20045;-71
2023/07/31 05:21:12;;;;;;;29.45;3.50;;;;;;;;;;5029562;28;20029;-73
2023/07/31 05:23:37;;;;;;;31.92;4.28;;;;;;;;;;5025204;28;20037;-70
2023/07/31 05:26:06;;;;;;;24.58;3.90;;;;;;;;;;5028360;28;20037;-74
2023/07/31 05:28:31;;;;;;;39.85;4.85;;;;;;;;;;5024490;28;20037;-73
2023/07/31 05:31:03;;;;;;;34.58;4.68;;;;;;;;;;5009452;28;20034;-76
2023/07/31 05:33:28;;;;;;;30.30;4.45;;;;;;;;;;5022724;28;20090;-74
2023/07/31 05:35:54;;;;;;;28.77;4.10;;;;;;;;;;5025679;28;20056;-73
2023/07/31 05:38:19;;;;;;;36.50;4.85;;;;;;;;;;5030337;28;20086;-71
2023/07/31 05:40:45;;;;;;;32.75;4.93;;;;;;;;;;5057061;28;20037;-72
2023/07/31 05:43:10;;;;;;;37.63;5.40;;;;;;;;;;5017912;28;20036;-73
2023/07/31 05:45:36;;;;;;;30.70;5.35;;;;;;;;;;5010380;28;20045;-71
2023/07/31 05:48:01;;;;;;;29.45;5.10;;;;;;;;;;5009640;28;20124;-75
2023/07/31 05:50:30;;;;;;;34.53;4.97;;;;;;;;;;5002808;28;20040;-69
2023/07/31 05:52:55;;;;;;;26.77;5.03;;;;;;;;;;5028487;28;20722;-70
2023/07/31 05:55:20;;;;;;;26.25;5.30;;;;;;;;;;5030607;28;20025;-72
2023/07/31 05:57:46;;;;;;;41.15;6.78;;;;;;;;;;5060106;28;20098;-75
2023/07/31 06:00:12;;;;;;;29.83;5.57;;;;;;;;;;5026121;28;20060;-71
2023/07/31 06:02:37;;;;;;;46.38;6.30;;;;;;;;;;5024272;28;20029;-70
2023/07/31 06:05:04;;;;;;;34.47;7.05;;;;;;;;;;5025310;28;20063;-69
2023/07/31 06:07:29;;;;;;;36.15;6.57;;;;;;;;;;5025849;28;20052;-71
2023/07/31 06:09:55;;;;;;;36.92;6.05;;;;;;;;;;5028790;28;20033;-72
2023/07/31 06:12:20;;;;;;;41.35;7.90;;;;;;;;;;5025721;28;20085;-72
2023/07/31 06:14:45;;;;;;;39.72;7.53;;;;;;;;;;5040367;28;20616;-71
2023/07/31 06:17:11;;;;;;;39.40;7.10;;;;;;;;;;5025925;28;20199;-72
2023/07/31 06:19:36;;;;;;;40.38;6.95;;;;;;;;;;5023191;28;20091;-75
2023/07/31 06:22:01;;;;;;;29.30;6.20;;;;;;;;;;5019194;28;20093;-76
2023/07/31 06:24:27;;;;;;;36.10;7.10;;;;;;;;;;5019921;28;20041;-67
2023/07/31 06:26:53;;;;;;;29.73;5.85;;;;;;;;;;5006737;28;20045;-70
2023/07/31 06:29:18;;;;;;;34.30;6.05;;;;;;;;;;4994124;28;20091;-68
2023/07/31 06:31:43;;;;;;;33.58;6.20;;;;;;;;;;4994662;28;20038;-69
2023/07/31 06:34:09;;;;;;;28.77;5.10;;;;;;;;;;4999835;28;20149;-69
2023/07/31 06:36:34;;;;;;;30.15;6.10;;;;;;;;;;4994047;28;20091;-70
2023/07/31 06:38:59;;;;;;;32.53;6.20;;;;;;;;;;4997324;28;20073;-71
2023/07/31 06:41:25;;;;;;;28.67;5.85;;;;;;;;;;4997740;28;20429;-70
2023/07/31 06:43:50;;;;;;;29.67;5.40;;;;;;;;;;4997697;28;20033;-70
2023/07/31 06:46:15;;;;;;;34.72;5.70;;;;;;;;;;4998133;28;20104;-71
2023/07/31 06:48:40;;;;;;;33.70;5.60;;;;;;;;;;5002980;28;20029;-70
2023/07/31 06:51:06;;;;;;;34.72;5.20;;;;;;;;;;5019723;28;20037;-69
2023/07/31 06:53:32;;;;;;;30.98;5.25;;;;;;;;;;5017495;28;20038;-71
2023/07/31 06:55:57;;;;;;;37.88;5.30;;;;;;;;;;5018111;28;20021;-68
2023/07/31 06:58:22;;;;;;;31.70;5.25;;;;;;;;;;5029998;28;20056;-67
2023/07/31 07:00:49;;;;;;;29.23;4.65;;;;;;;;;;5016615;28;20029;-67
2023/07/31 07:03:15;;;;;;;25.13;5.05;;;;;;;;;;5018419;28;20037;-68
2023/07/31 07:05:40;;;;;;;35.05;5.07;;;;;;;;;;5046504;28;20040;-68
2023/07/31 07:08:05;;;;;;;36.45;5.10;;;;;;;;;;5047184;28;20041;-65
2023/07/31 07:10:31;;;;;;;29.58;5.10;;;;;;;;;;5014050;28;20040;-67
2023/07/31 07:12:56;;;;;;;33.90;5.97;;;;;;;;;;5016727;28;20092;-65
2023/07/31 07:15:26;;;;;;;32.17;5.60;;;;;;;;;;5013994;28;20029;-69
2023/07/31 07:17:51;;;;;;;40.97;5.95;;;;;;;;;;5012658;28;20520;-71
2023/07/31 07:20:17;;;;;;;35.85;6.40;;;;;;;;;;5018680;28;20029;-71
2023/07/31 07:22:45;;;;;;;38.72;6.50;;;;;;;;;;5018648;28;20029;-72
2023/07/31 07:25:10;;;;;;;32.58;6.60;;;;;;;;;;5019145;28;20113;-72
2023/07/31 07:27:36;;;;;;;38.20;6.32;;;;;;;;;;4998849;28;20039;-71
2023/07/31 07:30:01;;;;;;;34.65;5.80;;;;;;;;;;5019283;28;20037;-70
2023/07/31 07:32:26;;;;;;;43.60;7.00;;;;;;;;;;5012856;28;20029;-70
2023/07/31 07:34:52;;;;;;;34.75;6.85;;;;;;;;;;5014190;28;20075;-69
2023/07/31 07:37:17;;;;;;;28.67;6.65;;;;;;;;;;4993221;28;20521;-70
2023/07/31 07:39:43;;;;;;;40.45;6.78;;;;;;;;;;5044860;28;20053;-69
2023/07/31 07:42:08;;;;;;;34.80;5.75;;;;;;;;;;5012172;28;20126;-71
2023/07/31 07:44:33;;;;;;;41.47;6.43;;;;;;;;;;5017162;28;20069;-73
2023/07/31 07:49:27;;;;;;;28.00;5.95;;;;;;;;;;5045145;22;20304;-74
2023/07/31 07:51:55;;;;;;;36.45;6.40;;;;;;;;;;4992543;28;20280;-72
2023/07/31 07:54:21;;;;;;;31.00;6.68;;;;;;;;;;5016094;28;20159;-71
2023/07/31 07:56:46;;;;;;;33.58;6.18;;;;;;;;;;5015843;28;20448;-71
2023/07/31 07:59:11;;;;;;;38.67;6.70;;;;;;;;;;5018104;28;20042;-72
2023/07/31 08:01:37;;;;;;;41.63;7.13;;;;;;;;;;5019021;28;20061;-72
2023/07/31 08:04:02;;;;;;;28.27;6.50;;;;;;;;;;5004924;28;20033;-71
2023/07/31 08:06:29;;;;;;;38.97;7.18;;;;;;;;;;5014357;28;20036;-74
2023/07/31 08:08:54;;;;;;;36.85;6.93;;;;;;;;;;5001209;28;20041;-71
2023/07/31 08:11:20;;;;;;;40.17;7.72;;;;;;;;;;5012595;28;20120;-72
2023/07/31 08:13:46;;;;;;;40.03;6.43;;;;;;;;;;5001034;28;20033;-71
2023/07/31 08:16:11;;;;;;;39.38;6.88;;;;;;;;;;5020616;28;20507;-72
2023/07/31 08:18:40;;;;;;;35.00;6.38;;;;;;;;;;4997515;28;20041;-71
2023/07/31 08:21:05;;;;;;;33.60;5.95;;;;;;;;;;5019088;28;20149;-71
2023/07/31 08:23:30;;;;;;;34.08;5.90;;;;;;;;;;5017090;28;20163;-69
2023/07/31 08:25:56;;;;;;;29.85;5.03;;;;;;;;;;5018032;28;20572;-72
2023/07/31 08:28:21;;;;;;;36.45;5.75;;;;;;;;;;5006259;28;20481;-74
2023/07/31 08:30:46;;;;;;;30.95;5.18;;;;;;;;;;5005725;28;20029;-75
2023/07/31 08:33:11;;;;;;;23.42;5.32;;;;;;;;;;5018359;28;20071;-72
2023/07/31 08:35:37;;;;;;;32.72;5.60;;;;;;;;;;4997242;28;20040;-73
2023/07/31 08:38:02;;;;;;;24.52;4.88;;;;;;;;;;5003029;28;20079;-72
2023/07/31 08:40:28;;;;;;;22.38;4.65;;;;;;;;;;5019095;28;20025;-73
2023/07/31 08:43:02;;;;;;;35.17;6.00;;;;;;;;;;5017869;28;20527;-71
2023/07/31 08:45:27;;;;;;;27.85;5.00;;;;;;;;;;5017501;28;20132;-73
2023/07/31 08:47:53;;;;;;;35.38;6.20;;;;;;;;;;5016943;28;20029;-76
2023/07/31 08:50:20;;;;;;;36.30;5.57;;;;;;;;;;5018171;28;21904;-76
2023/07/31 08:52:46;;;;;;;32.40;6.40;;;;;;;;;;5016386;28;20044;-72
2023/07/31 08:55:14;;;;;;;31.17;6.00;;;;;;;;;;5017467;28;20030;-73
2023/07/31 08:57:41;;;;;;;27.10;5.25;;;;;;;;;;5020455;28;20445;-74
2023/07/31 09:00:08;;;;;;;28.77;5.15;;;;;;;;;;5020080;28;20052;-76
2023/07/31 09:02:39;;;;;;;34.70;6.03;;;;;;;;;;4998274;28;20116;-74
2023/07/31 09:05:06;;;;;;;35.08;5.65;;;;;;;;;;5004115;28;20299;-71
2023/07/31 09:07:31;;;;;;;30.08;5.20;;;;;;;;;;5014119;28;20041;-71
2023/07/31 09:09:57;;;;;;;28.92;5.28;;;;;;;;;;5016177;28;20033;-73
2023/07/31 09:12:22;;;;;;;26.35;5.10;;;;;;;;;;4993280;28;20039;-71
2023/07/31 09:14:48;;;;;;;27.42;4.97;;;;;;;;;;5014550;28;20874;-75
2023/07/31 09:17:18;;;;;;;27.02;5.20;;;;;;;;;;4978667;28;20136;-71
2023/07/31 09:19:43;;;;;;;29.35;5.45;;;;;;;;;;5014520;28;20049;-72
2023/07/31 09:22:11;;;;;;;30.58;5.38;;;;;;;;;;4996237;28;20064;-72
2023/07/31 09:24:37;;;;;;;35.58;5.43;;;;;;;;;;5014654;28;20042;-72
2023/07/31 09:27:02;;;;;;;29.67;5.15;;;;;;;;;;4999540;28;20056;-73
2023/07/31 09:29:29;;;;;;;21.77;4.30;;;;;;;;;;5015592;28;20071;-69
2023/07/31 09:31:55;;;;;;;25.52;4.50;;;;;;;;;;5013823;28;20903;-69
2023/07/31 09:34:30;;;;;;;25.00;4.18;;;;;;;;;;5016496;28;20041;-72
2023/07/31 09:36:57;;;;;;;22.73;4.88;;;;;;;;;;5015774;28;20121;-71
2023/07/31 09:39:26;;;;;;;31.88;4.47;;;;;;;;;;5014914;28;20083;-72
2023/07/31 09:41:55;;;;;;;28.02;5.57;;;;;;;;;;4998052;28;20033;-72
2023/07/31 09:44:21;;;;;;;32.88;5.22;;;;;;;;;;5011869;28;20051;-73
2023/07/31 09:46:46;;;;;;;28.33;4.90;;;;;;;;;;5013754;28;20104;-72
2023/07/31 09:49:14;;;;;;;31.08;4.85;;;;;;;;;;4973538;28;20047;-73
2023/07/31 09:51:41;;;;;;;36.75;5.22;;;;;;;;;;5013134;28;20394;-70
2023/07/31 09:54:10;;;;;;;28.33;5.15;;;;;;;;;;4982410;28;20037;-70
2023/07/31 09:56:39;;;;;;;31.23;4.82;;;;;;;;;;4996346;28;20102;-70
2023/07/31 09:59:05;;;;;;;21.33;4.05;;;;;;;;;;4999261;28;20048;-71
2023/07/31 10:01:33;;;;;;;27.88;4.60;;;;;;;;;;5015236;28;20037;-70
2023/07/31 10:03:58;;;;;;;29.60;4.85;;;;;;;;;;4991638;28;20048;-70
2023/07/31 10:06:24;;;;;;;26.30;5.20;;;;;;;;;;5015824;28;20033;-70
2023/07/31 10:08:51;;;;;;;27.73;4.93;;;;;;;;;;4996028;28;20040;-70
2023/07/31 10:11:16;;;;;;;32.25;4.85;;;;;;;;;;5013570;28;20034;-69
2023/07/31 10:13:43;;;;;;;27.77;4.90;;;;;;;;;;5009806;28;20094;-72
2023/07/31 10:16:08;;;;;;;26.58;5.03;;;;;;;;;;4993486;28;20041;-69
2023/07/31 10:18:35;;;;;;;29.20;4.90;;;;;;;;;;4996180;28;20484;-73
2023/07/31 10:21:01;;;;;;;22.92;4.47;;;;;;;;;;5016372;28;20198;-72
2023/07/31 10:23:26;;;;;;;27.88;4.50;;;;;;;;;;4998650;28;20127;-73
2023/07/31 10:25:54;;;;;;;26.92;4.63;;;;;;;;;;4990196;28;20067;-73
2023/07/31 10:28:22;;;;;;;26.27;4.47;;;;;;;;;;5004154;28;20179;-72
2023/07/31 10:30:48;;;;;;;23.17;4.35;;;;;;;;;;5007985;28;20408;-72
2023/07/31 10:33:14;;;;;;;27.35;4.88;;;;;;;;;;5009342;28;20044;-72
2023/07/31 10:35:40;;;;;;;23.40;4.75;;;;;;;;;;4988587;28;20278;-71
2023/07/31 10:38:12;;;;;;;32.00;5.47;;;;;;;;;;5009028;28;20901;-72
2023/07/31 10:40:40;;;;;;;23.90;4.30;;;;;;;;;;4989736;28;20128;-74
2023/07/31 10:43:05;;;;;;;24.48;4.35;;;;;;;;;;5011458;28;20112;-73
2023/07/31 10:45:32;;;;;;;29.50;4.80;;;;;;;;;;5008658;28;20029;-72
2023/07/31 10:48:01;;;;;;;24.98;4.47;;;;;;;;;;5005987;28;20071;-74
2023/07/31 10:50:30;;;;;;;23.85;4.70;;;;;;;;;;4989926;28;20029;-72
2023/07/31 10:52:57;;;;;;;19.35;4.00;;;;;;;;;;5008607;28;20762;-74
2023/07/31 10:55:27;;;;;;;27.00;5.65;;;;;;;;;;5010068;28;20391;-72
2023/07/31 10:58:11;;;;;;;21.35;5.10;;;;;;;;;;5010251;28;20511;-75
2023/07/31 11:00:37;;;;;;;27.20;5.15;;;;;;;;;;4994799;28;20060;-73
2023/07/31 11:03:03;;;;;;;27.85;5.82;;;;;;;;;;5008224;28;20100;-76
2023/07/31 11:05:49;;;;;;;30.33;5.57;;;;;;;;;;4989016;28;20040;-71
2023/07/31 11:08:14;;;;;;;28.27;4.65;;;;;;;;;;4992902;28;20117;-72
2023/07/31 11:10:39;;;;;;;28.85;5.75;;;;;;;;;;5005770;28;20654;-72
2023/07/31 11:13:07;;;;;;;26.65;5.28;;;;;;;;;;5007784;28;20036;-73
2023/07/31 11:15:32;;;;;;;32.53;5.75;;;;;;;;;;4989656;28;20505;-72
2023/07/31 11:17:59;;;;;;;23.13;4.78;;;;;;;;;;5008917;28;20169;-71
2023/07/31 11:20:25;;;;;;;30.50;6.50;;;;;;;;;;5008729;28;20044;-73
2023/07/31 11:22:50;;;;;;;27.90;5.82;;;;;;;;;;5007204;28;20037;-73
2023/07/31 11:25:18;;;;;;;29.63;5.35;;;;;;;;;;4987437;28;20103;-74
2023/07/31 11:27:43;;;;;;;26.02;5.32;;;;;;;;;;5005737;28;20124;-73
2023/07/31 11:30:12;;;;;;;23.95;5.43;;;;;;;;;;5007608;28;20491;-74
2023/07/31 11:32:37;;;;;;;24.95;5.47;;;;;;;;;;5005877;28;20828;-73
2023/07/31 11:35:04;;;;;;;23.60;4.85;;;;;;;;;;5006330;28;21175;-72
2023/07/31 11:37:42;;;;;;;23.83;5.15;;;;;;;;;;4993060;28;20410;-70
2023/07/31 11:40:08;;;;;;;31.45;5.38;;;;;;;;;;5010123;28;20107;-75
2023/07/31 11:42:34;;;;;;;26.35;5.05;;;;;;;;;;4993311;28;20117;-70
2023/07/31 11:45:02;;;;;;;22.48;4.90;;;;;;;;;;4992681;28;20242;-74
2023/07/31 11:47:27;;;;;;;27.02;5.22;;;;;;;;;;4991772;28;20037;-75
2023/07/31 11:49:53;;;;;;;25.73;4.50;;;;;;;;;;4995706;28;20071;-72
2023/07/31 11:52:20;;;;;;;27.85;5.70;;;;;;;;;;5012796;28;20142;-71
2023/07/31 11:54:45;;;;;;;20.15;4.68;;;;;;;;;;4995345;28;20072;-70
2023/07/31 11:57:11;;;;;;;21.83;4.45;;;;;;;;;;5014566;28;20037;-72
2023/07/31 11:59:40;;;;;;;24.45;4.75;;;;;;;;;;5014278;28;20045;-70
2023/07/31 12:02:05;;;;;;;26.35;5.00;;;;;;;;;;4996111;28;20041;-71
2023/07/31 12:04:31;;;;;;;24.80;5.38;;;;;;;;;;4995266;28;20029;-73
2023/07/31 12:06:56;;;;;;;22.25;5.00;;;;;;;;;;5010679;28;20124;-73
2023/07/31 12:09:22;;;;;;;26.40;5.15;;;;;;;;;;5011706;28;20124;-74
2023/07/31 12:11:47;;;;;;;24.80;5.45;;;;;;;;;;5012210;28;20577;-76
2023/07/31 12:14:22;;;;;;;23.42;4.43;;;;;;;;;;5010176;28;20033;-73
2023/07/31 12:16:47;;;;;;;21.30;4.20;;;;;;;;;;4988122;28;20043;-71
2023/07/31 12:19:12;;;;;;;23.35;4.55;;;;;;;;;;5012455;28;20587;-71
2023/07/31 12:21:38;;;;;;;22.88;5.15;;;;;;;;;;5008763;28;20079;-73
2023/07/31 12:24:03;;;;;;;18.30;3.92;;;;;;;;;;5008463;28;20554;-72
2023/07/31 12:26:34;;;;;;;19.27;3.90;;;;;;;;;;5010016;28;20477;-72
2023/07/31 12:28:59;;;;;;;26.10;4.93;;;;;;;;;;5005998;28;20490;-74
2023/07/31 12:31:27;;;;;;;22.52;4.40;;;;;;;;;;4990958;28;20102;-71
2023/07/31 12:33:52;;;;;;;18.73;4.00;;;;;;;;;;5010795;28;20052;-72
2023/07/31 12:36:20;;;;;;;23.90;4.50;;;;;;;;;;5014367;28;20043;-70
2023/07/31 12:38:48;;;;;;;23.40;4.60;;;;;;;;;;4994958;28;20049;-72
2023/07/31 12:41:13;;;;;;;27.92;5.05;;;;;;;;;;4997701;28;20043;-71
2023/07/31 12:43:40;;;;;;;20.27;4.00;;;;;;;;;;5015319;28;20173;-72
2023/07/31 12:46:07;;;;;;;25.25;4.65;;;;;;;;;;5012033;28;20044;-71
2023/07/31 12:48:33;;;;;;;18.48;3.75;;;;;;;;;;5021456;28;20036;-70
2023/07/31 12:51:01;;;;;;;18.52;3.40;;;;;;;;;;5020342;28;20674;-73
2023/07/31 12:53:26;;;;;;;19.70;4.45;;;;;;;;;;5001247;28;20100;-76
2023/07/31 12:55:51;;;;;;;28.15;4.80;;;;;;;;;;5002850;28;20044;-76
2023/07/31 12:58:18;;;;;;;26.20;4.38;;;;;;;;;;5000235;28;20040;-75
2023/07/31 13:00:46;;;;;;;18.35;4.03;;;;;;;;;;4986384;28;20033;-75
2023/07/31 13:03:11;;;;;;;24.15;4.72;;;;;;;;;;5003795;28;20708;-74
2023/07/31 13:05:37;;;;;;;18.17;3.25;;;;;;;;;;5024526;28;20061;-72
2023/07/31 13:08:02;;;;;;;21.65;4.35;;;;;;;;;;5024064;28;20193;-73
2023/07/31 13:10:28;;;;;;;16.33;3.63;;;;;;;;;;5022704;28;20029;-75
2023/07/31 13:12:54;;;;;;;19.40;3.90;;;;;;;;;;5020577;28;20498;-78
2023/07/31 13:15:19;;;;;;;20.58;4.45;;;;;;;;;;5017229;28;20033;-77
2023/07/31 13:17:45;;;;;;;15.40;3.50;;;;;;;;;;5000347;28;20044;-75
2023/07/31 13:20:10;;;;;;;26.23;4.95;;;;;;;;;;4993190;28;20041;-74
2023/07/31 13:22:36;;;;;;;15.38;3.58;;;;;;;;;;5018292;28;20316;-75
2023/07/31 13:25:03;;;;;;;20.88;4.15;;;;;;;;;;5013607;28;20126;-73
2023/07/31 13:27:29;;;;;;;16.38;3.72;;;;;;;;;;5004047;28;20543;-76
2023/07/31 13:29:56;;;;;;;21.33;4.40;;;;;;;;;;4997737;28;20044;-81
2023/07/31 13:32:22;;;;;;;17.77;2.88;;;;;;;;;;5013802;28;20746;-76
2023/07/31 13:34:48;;;;;;;17.25;3.42;;;;;;;;;;4996117;28;20274;-75
2023/07/31 13:37:13;;;;;;;13.63;2.58;;;;;;;;;;5001346;28;20123;-74
2023/07/31 13:39:41;;;;;;;15.80;2.60;;;;;;;;;;5020674;28;20642;-76
2023/07/31 13:42:09;;;;;;;13.63;3.03;;;;;;;;;;5025274;28;20368;-76
2023/07/31 13:44:37;;;;;;;14.48;3.40;;;;;;;;;;5028374;28;20055;-77
2023/07/31 13:47:02;;;;;;;18.27;2.75;;;;;;;;;;5002168;28;20489;-74
2023/07/31 13:49:28;;;;;;;17.27;3.28;;;;;;;;;;5030024;28;20119;-77
2023/07/31 13:51:56;;;;;;;16.70;3.17;;;;;;;;;;5026752;28;20040;-80
2023/07/31 13:54:22;;;;;;;15.95;3.20;;;;;;;;;;5011911;28;20044;-81
2023/07/31 13:56:47;;;;;;;12.77;2.90;;;;;;;;;;5001415;28;20037;-77
2023/07/31 13:59:14;;;;;;;19.17;3.38;;;;;;;;;;5012750;28;20041;-75
2023/07/31 14:01:40;;;;;;;19.27;4.00;;;;;;;;;;5011876;28;20045;-78
2023/07/31 14:04:05;;;;;;;24.58;4.35;;;;;;;;;;5013050;28;20037;-78
2023/07/31 14:06:31;;;;;;;20.60;4.55;;;;;;;;;;5014717;28;20044;-74
2023/07/31 14:08:59;;;;;;;22.90;4.57;;;;;;;;;;5011678;28;20033;-80
2023/07/31 14:11:24;;;;;;;21.23;3.90;;;;;;;;;;4996947;28;20094;-74
2023/07/31 14:13:50;;;;;;;25.23;4.60;;;;;;;;;;4980782;28;20037;-81
2023/07/31 14:16:17;;;;;;;21.10;4.32;;;;;;;;;;5013491;28;20053;-78
2023/07/31 14:18:43;;;;;;;25.75;4.55;;;;;;;;;;4997716;28;20175;-75
2023/07/31 14:21:08;;;;;;;30.65;5.05;;;;;;;;;;5011448;28;20056;-77
2023/07/31 14:23:34;;;;;;;26.00;5.63;;;;;;;;;;5015463;28;20041;-79
2023/07/31 14:25:59;;;;;;;26.38;5.15;;;;;;;;;;5013469;28;20067;-78